EST,Max TemperatureF,Mean TemperatureF,Min TemperatureF,Max Dew PointF,MeanDew PointF,Min DewpointF,Max Humidity, Mean Humidity, Min Humidity, Max Sea Level PressureIn, Mean Sea Level PressureIn, Min Sea Level PressureIn, Max VisibilityMiles, Mean VisibilityMiles, Min VisibilityMiles, Max Wind SpeedMPH, Mean Wind SpeedMPH, Max Gust SpeedMPH,PrecipitationIn, CloudCover, Events, WindDirDegrees
2014-1-1,24,22,19,18,17,16,93,85,74,30.36,30.29,30.13,10,4,1,16,9,,0.04,8,Snow,64
2014-1-2,23,19,15,20,16,7,93,85,70,30.14,30.00,29.88,10,2,0,32,17,44,0.01,8,Fog-Snow,35
2014-1-3,16,13,10,8,5,0,79,68,56,30.44,30.34,30.12,10,8,2,25,17,34,0.00,6,Snow,288
2014-1-4,35,24,14,17,10,2,64,51,38,30.26,30.10,30.02,10,10,9,31,18,39,0.00,3,,175
2014-1-5,39,36,32,36,26,18,100,72,50,30.10,29.76,29.30,10,8,2,21,7,23,0.25,8,Rain-Snow,152
2014-1-6,30,10,-9,30,7,-19,100,79,62,30.23,29.81,29.35,10,4,1,36,24,44,0.01,7,Snow,253
2014-1-7,5,-2,-9,-5,-12,-19,68,63,57,30.41,30.33,30.23,10,10,10,31,22,38,0.00,2,,215
2014-1-8,21,14,6,15,7,-4,78,68,60,30.53,30.44,30.40,10,10,9,16,12,25,0.00,5,,199
2014-1-9,30,22,14,27,20,10,93,82,63,30.62,30.45,30.33,10,6,0,16,6,,0.01,5,Fog-Snow,148
2014-1-10,46,38,30,42,33,28,93,91,85,30.31,30.14,29.77,10,6,2,17,9,25,0.03,8,Snow,152
2014-1-11,51,42,34,48,41,28,100,87,79,29.70,29.46,29.32,10,8,1,28,16,41,0.13,8,Rain,211
2014-1-12,41,36,33,29,28,27,85,76,62,29.99,29.89,29.69,10,10,9,21,16,32,0.00,5,,213
2014-1-13,50,46,43,43,35,28,93,67,50,29.84,29.72,29.66,10,10,6,23,18,34,0.02,4,Rain,179
2014-1-14,44,38,33,41,31,25,93,78,55,29.84,29.76,29.67,10,9,5,17,9,,0.00,5,,242
2014-1-15,33,30,26,25,18,14,78,65,54,30.04,29.95,29.78,10,10,6,26,18,32,0.00,8,Snow,236
2014-1-16,30,26,21,25,18,12,86,71,49,30.00,29.83,29.72,10,7,1,23,14,31,0.00,7,Snow,177
2014-1-17,37,26,15,31,23,8,96,81,64,29.98,29.81,29.70,10,6,0,30,15,38,0.04,7,Fog-Snow,208
2014-1-18,19,16,12,16,9,5,86,71,62,30.03,29.95,29.83,10,9,2,20,14,26,0.00,6,Snow,198
2014-1-19,35,26,19,22,17,15,89,75,59,29.81,29.73,29.61,10,8,2,29,14,39,0.00,6,Snow,198
2014-1-20,36,28,18,29,21,12,88,76,59,30.01,29.80,29.56,10,8,2,22,16,33,0.00,8,Snow,331
2014-1-21,18,12,7,14,5,-4,86,71,56,30.19,30.07,29.96,10,9,4,22,16,29,0.00,6,Snow,31
2014-1-22,12,9,6,4,0,-4,73,65,56,30.17,30.10,30.01,10,9,5,15,9,20,0.00,6,Snow,246
2014-1-23,12,8,5,9,6,1,92,82,73,30.50,30.26,29.98,10,2,0,28,16,33,0.00,8,Fog-Snow,248
2014-1-24,21,10,0,3,-2,-6,92,65,46,30.50,30.23,29.71,10,9,4,32,16,43,0.00,4,Snow,199
2014-1-25,28,21,12,25,15,3,93,82,62,29.79,29.50,29.30,10,3,0,33,22,40,0.00,8,Fog-Snow,264
2014-1-26,33,20,7,25,9,-1,85,73,61,29.82,29.63,29.42,10,6,0,21,15,33,0.00,7,Snow,185
2014-1-27,37,20,3,27,8,-7,92,75,56,30.35,29.91,29.37,10,4,0,45,29,56,0.00,7,Fog-Snow,256
2014-1-28,9,2,-6,-5,-9,-13,79,64,42,30.45,30.36,30.29,10,9,2,24,16,29,0.00,2,Snow,220
2014-1-29,17,9,1,1,-4,-11,66,54,43,30.29,30.25,30.21,10,10,10,26,18,38,0.00,0,,215
2014-1-30,32,20,10,9,2,-1,61,45,32,30.27,30.09,29.84,10,10,10,29,16,46,0.00,3,,170
2014-1-31,36,33,30,27,20,10,86,61,38,30.18,30.08,29.94,10,9,2,20,13,29,0.00,7,Snow,215